Time;durP1;ratioP1;P1;durP2;ratioP2;P2;SDS_P1;SDS_P2;PMS_P1;PMS_P2;Temp;Humidity;BMP_temperature;BMP_pressure;BME280_temperature;BME280_humidity;BME280_pressure;Samples;Min_cycle;Max_cycle;Signal;HPM_P1;HPM_P2
2022/04/29 00:01:03;;;;;;;3.63;3.20;;;21.30;84.60;;;;;;5047316;28;20183;-79
2022/04/29 00:03:30;;;;;;;6.57;3.23;;;21.60;84.00;;;;;;5067734;28;20247;-75
2022/04/29 00:05:57;;;;;;;2.80;2.37;;;21.80;82.70;;;;;;5052414;28;20221;-82
2022/04/29 00:08:25;;;;;;;6.27;2.50;;;22.00;82.50;;;;;;5051640;28;20674;-79
2022/04/29 00:10:52;;;;;;;4.23;2.60;;;22.10;82.10;;;;;;5052306;28;20710;-77
2022/04/29 00:13:20;;;;;;;5.27;2.43;;;22.10;82.20;;;;;;5051802;28;20207;-77
2022/04/29 00:15:48;;;;;;;3.00;2.53;;;21.90;82.30;;;;;;5066575;28;20179;-78
2022/04/29 00:18:15;;;;;;;2.70;2.00;;;21.90;82.80;;;;;;5070530;28;20190;-80
2022/04/29 00:20:43;;;;;;;3.20;2.13;;;22.00;82.80;;;;;;5070852;28;20186;-78
2022/04/29 00:23:11;;;;;;;2.83;1.87;;;22.30;82.40;;;;;;5053381;28;20581;-77
2022/04/29 00:25:38;;;;;;;4.67;2.23;;;22.40;81.40;;;;;;5050729;28;20204;-76
2022/04/29 00:28:06;;;;;;;2.17;1.80;;;22.80;81.50;;;;;;5050254;28;20187;-77
2022/04/29 00:30:34;;;;;;;2.70;1.70;;;22.80;80.30;;;;;;5052434;28;20504;-80
2022/04/29 00:33:01;;;;;;;4.33;1.83;;;22.60;81.00;;;;;;5052257;28;20195;-81
2022/04/29 00:35:29;;;;;;;2.43;1.60;;;22.80;80.10;;;;;;5052578;28;20553;-77
2022/04/29 00:37:57;;;;;;;3.27;2.00;;;22.80;80.30;;;;;;5064018;28;20179;-77
2022/04/29 00:40:27;;;;;;;2.37;1.80;;;22.90;79.90;;;;;;5070735;28;20201;-76
2022/04/29 00:42:55;;;;;;;5.23;1.93;;;22.90;79.90;;;;;;5062598;28;20232;-77
2022/04/29 00:45:24;;;;;;;2.67;1.53;;;22.80;80.00;;;;;;5036099;28;20200;-78
2022/04/29 00:47:52;;;;;;;3.17;1.73;;;22.80;80.00;;;;;;5036631;28;20184;-79
2022/04/29 00:50:26;;;;;;;2.67;1.70;;;22.80;79.70;;;;;;5041038;28;20187;-80
2022/04/29 00:52:55;;;;;;;2.93;1.60;;;22.90;80.40;;;;;;5056110;28;20211;-77
2022/04/29 00:55:24;;;;;;;3.07;1.50;;;23.00;79.80;;;;;;5056351;28;20169;-78
2022/04/29 00:58:13;;;;;;;2.00;1.50;;;23.20;79.10;;;;;;5056569;28;20242;-77
2022/04/29 01:00:40;;;;;;;2.23;1.60;;;23.30;77.80;;;;;;5040199;28;20184;-78
2022/04/29 01:03:12;;;;;;;5.47;1.50;;;23.30;77.90;;;;;;5051305;28;20181;-77
2022/04/29 01:05:41;;;;;;;7.03;1.77;;;23.50;77.60;;;;;;5055918;28;20555;-80
2022/04/29 01:08:10;;;;;;;1.83;1.33;;;23.70;77.30;;;;;;5055916;28;20263;-78
2022/04/29 01:10:37;;;;;;;6.33;1.63;;;23.80;76.60;;;;;;5054712;28;20172;-78
2022/04/29 01:13:05;;;;;;;2.83;1.40;;;23.80;76.30;;;;;;5047717;28;20184;-77
2022/04/29 01:15:35;;;;;;;2.63;1.50;;;24.20;76.00;;;;;;5042713;28;20275;-76
2022/04/29 01:18:08;;;;;;;3.60;1.30;;;24.30;75.60;;;;;;5053702;28;20180;-78
2022/04/29 01:20:37;;;;;;;5.73;1.40;;;24.30;75.20;;;;;;5054193;28;20263;-77
2022/04/29 01:23:09;;;;;;;2.03;1.40;;;24.30;75.10;;;;;;5055551;28;20179;-80
2022/04/29 01:25:37;;;;;;;2.77;1.60;;;24.20;75.50;;;;;;5053304;28;20216;-78
2022/04/29 01:28:05;;;;;;;3.27;1.63;;;24.00;76.10;;;;;;5052452;28;20238;-77
2022/04/29 01:30:33;;;;;;;2.57;1.30;;;24.10;75.70;;;;;;5050809;28;20199;-78
2022/04/29 01:33:01;;;;;;;3.27;1.40;;;24.10;75.80;;;;;;5054984;28;20690;-79
2022/04/29 01:35:29;;;;;;;2.50;1.40;;;24.00;75.40;;;;;;5055150;28;20641;-78
2022/04/29 01:37:57;;;;;;;3.97;1.50;;;24.10;75.70;;;;;;5054038;28;20184;-78
2022/04/29 01:40:25;;;;;;;2.27;1.47;;;24.00;75.80;;;;;;5050711;28;20184;-77
2022/04/29 01:42:52;;;;;;;3.13;1.57;;;24.20;76.10;;;;;;5055062;28;20223;-79
2022/04/29 01:45:19;;;;;;;3.17;1.33;;;24.20;75.20;;;;;;5052440;28;20219;-76
2022/04/29 01:47:50;;;;;;;6.27;1.90;;;24.30;74.80;;;;;;5036287;28;20545;-76
2022/04/29 01:50:17;;;;;;;4.10;1.73;;;24.50;74.90;;;;;;5037359;28;20214;-78
2022/04/29 01:52:44;;;;;;;2.40;1.33;;;24.70;74.10;;;;;;5054550;28;20226;-78
2022/04/29 01:55:12;;;;;;;4.47;1.70;;;24.70;73.80;;;;;;5054701;28;20172;-77
2022/04/29 01:57:39;;;;;;;4.33;1.70;;;25.00;73.70;;;;;;5051979;28;20269;-77
2022/04/29 02:00:07;;;;;;;2.67;1.40;;;25.10;72.70;;;;;;5054433;28;20180;-78
2022/04/29 02:02:35;;;;;;;2.90;1.70;;;25.00;72.50;;;;;;5054234;28;20180;-78
2022/04/29 02:05:03;;;;;;;3.57;1.57;;;24.90;72.90;;;;;;5055026;28;20254;-77
2022/04/29 02:07:30;;;;;;;4.33;1.93;;;24.80;73.20;;;;;;5054610;28;20168;-77
2022/04/29 02:09:58;;;;;;;3.17;1.90;;;24.80;73.10;;;;;;5054804;28;20627;-77
2022/04/29 02:12:25;;;;;;;2.80;1.60;;;24.80;74.30;;;;;;5053468;28;20195;-77
2022/04/29 02:14:52;;;;;;;5.93;1.70;;;24.80;73.30;;;;;;5063364;28;20183;-78
2022/04/29 02:17:20;;;;;;;1.70;1.37;;;24.80;73.20;;;;;;5068861;28;20172;-77
2022/04/29 02:19:47;;;;;;;2.90;1.90;;;24.80;72.70;;;;;;5070020;28;20188;-77
2022/04/29 02:22:15;;;;;;;3.53;1.80;;;24.80;72.60;;;;;;5071807;28;20187;-77
2022/04/29 02:24:43;;;;;;;4.27;1.67;;;24.90;72.50;;;;;;5071865;28;20180;-77
2022/04/29 02:27:10;;;;;;;4.57;1.70;;;25.10;72.00;;;;;;5063661;28;20246;-78
2022/04/29 02:29:38;;;;;;;4.00;1.90;;;25.20;71.50;;;;;;5095929;28;20188;-77
2022/04/29 02:32:05;;;;;;;5.50;1.60;;;25.20;72.20;;;;;;5055241;28;20191;-77
2022/04/29 02:34:36;;;;;;;4.23;1.57;;;25.40;71.30;;;;;;5054947;28;20171;-77
2022/04/29 02:37:04;;;;;;;2.60;1.73;;;25.60;70.90;;;;;;5051819;28;20180;-79
2022/04/29 02:39:32;;;;;;;2.60;1.60;;;25.70;70.50;;;;;;5043131;28;20579;-78
2022/04/29 02:41:59;;;;;;;5.50;2.07;;;25.90;70.20;;;;;;5047936;28;20222;-77
2022/04/29 02:44:27;;;;;;;2.70;1.40;;;25.90;69.70;;;;;;5049217;28;20583;-78
2022/04/29 02:47:09;;;;;;;3.10;1.70;;;26.40;68.80;;;;;;5048363;28;20180;-78
2022/04/29 02:49:41;;;;;;;4.13;1.27;;;27.00;67.00;;;;;;5050600;28;20187;-77
2022/04/29 02:52:10;;;;;;;5.43;1.67;;;26.80;66.10;;;;;;5051941;28;20183;-78
2022/04/29 02:54:38;;;;;;;4.13;1.63;;;27.00;66.30;;;;;;5052721;28;20256;-76
2022/04/29 02:57:06;;;;;;;1.80;1.33;;;26.70;67.40;;;;;;5050142;28;20256;-77
2022/04/29 02:59:34;;;;;;;3.07;1.50;;;27.30;65.10;;;;;;5050444;28;20189;-82
2022/04/29 03:02:01;;;;;;;2.50;1.17;;;27.80;63.10;;;;;;5048910;28;20219;-78
2022/04/29 03:04:28;;;;;;;5.43;1.60;;;27.70;63.00;;;;;;5050066;28;20592;-79
2022/04/29 03:06:56;;;;;;;4.43;1.30;;;27.90;61.50;;;;;;5049997;28;20249;-77
2022/04/29 03:09:25;;;;;;;2.67;1.77;;;27.80;62.00;;;;;;5052177;28;20512;-77
2022/04/29 03:11:52;;;;;;;2.67;1.20;;;27.40;63.80;;;;;;5047140;28;20643;-78
2022/04/29 03:14:19;;;;;;;4.97;3.03;;;27.20;64.50;;;;;;5043259;28;20190;-76
2022/04/29 03:16:47;;;;;;;6.60;4.63;;;27.10;65.00;;;;;;5050654;28;20272;-75
2022/04/29 03:19:14;;;;;;;4.83;1.70;;;27.60;64.60;;;;;;5049389;28;20484;-78
2022/04/29 03:21:41;;;;;;;4.50;1.63;;;28.10;61.30;;;;;;5050801;28;20710;-77
2022/04/29 03:24:09;;;;;;;2.33;1.43;;;27.80;62.00;;;;;;5053024;28;20263;-77
2022/04/29 03:26:37;;;;;;;6.83;3.33;;;27.30;64.70;;;;;;5045262;28;20284;-76
2022/04/29 03:29:05;;;;;;;6.70;1.63;;;27.80;63.90;;;;;;5050830;28;20177;-76
2022/04/29 03:31:32;;;;;;;7.70;3.57;;;28.00;62.40;;;;;;5050172;28;20184;-76
2022/04/29 03:34:00;;;;;;;6.43;2.13;;;28.30;61.90;;;;;;5047458;28;20187;-76
2022/04/29 03:36:27;;;;;;;5.80;2.20;;;28.60;61.10;;;;;;5046060;28;20263;-77
2022/04/29 03:38:54;;;;;;;6.03;2.00;;;28.80;60.60;;;;;;5051094;28;20671;-81
2022/04/29 03:41:22;;;;;;;6.87;1.97;;;28.80;58.50;;;;;;5046639;28;20643;-77
2022/04/29 03:43:49;;;;;;;6.70;2.38;;;28.30;60.10;;;;;;5050962;28;20191;-75
2022/04/29 03:46:17;;;;;;;10.17;2.60;;;28.30;61.30;;;;;;5049945;28;20220;-76
2022/04/29 03:51:30;;;;;;;37.13;5.70;;;28.40;60.70;;;;;;5047283;28;20250;-75
2022/04/29 03:53:57;;;;;;;19.93;3.70;;;27.90;61.70;;;;;;5047713;28;20180;-76
2022/04/29 03:56:25;;;;;;;12.80;2.97;;;27.90;62.10;;;;;;5048351;28;20763;-78
2022/04/29 03:58:52;;;;;;;7.97;1.97;;;28.10;61.50;;;;;;5049842;28;20180;-79
2022/04/29 04:01:20;;;;;;;8.57;2.10;;;28.50;60.90;;;;;;5045317;28;20188;-75
2022/04/29 04:03:47;;;;;;;5.53;1.63;;;29.00;59.10;;;;;;5048921;28;20263;-79
2022/04/29 04:09:00;;;;;;;8.00;2.40;;;29.50;57.20;;;;;;5053072;28;20310;-78
2022/04/29 04:11:27;;;;;;;4.78;1.60;;;28.90;59.70;;;;;;5052659;28;20301;-76
2022/04/29 04:13:55;;;;;;;3.78;1.60;;;29.50;56.40;;;;;;5052134;28;20515;-76
2022/04/29 04:16:24;;;;;;;2.70;1.33;;;30.00;55.00;;;;;;5051081;28;20782;-78
2022/04/29 04:18:52;;;;;;;2.95;1.80;;;29.70;55.80;;;;;;5052916;28;20267;-76
2022/04/29 04:21:19;;;;;;;3.67;1.90;;;30.60;53.50;;;;;;5052547;28;20168;-77
2022/04/29 04:23:46;;;;;;;9.27;2.60;;;30.70;53.70;;;;;;5052609;28;20174;-78
2022/04/29 04:26:14;;;;;;;7.47;2.63;;;30.00;57.60;;;;;;5052590;28;20290;-78
2022/04/29 04:28:44;;;;;;;8.98;2.50;;;29.80;59.30;;;;;;5053045;28;20191;-80
2022/04/29 04:31:11;;;;;;;4.47;2.03;;;30.00;58.00;;;;;;5052404;28;20175;-79
2022/04/29 04:33:39;;;;;;;6.20;2.35;;;29.90;57.10;;;;;;5052589;28;20525;-79
2022/04/29 04:36:06;;;;;;;12.80;2.20;;;30.40;56.00;;;;;;5052137;28;20221;-81
2022/04/29 04:38:36;;;;;;;5.85;1.80;;;29.50;57.90;;;;;;5053042;28;20203;-78
2022/04/29 04:41:04;;;;;;;3.08;2.00;;;29.80;57.50;;;;;;5051871;28;20161;-79
2022/04/29 04:43:32;;;;;;;6.82;2.60;;;30.30;56.40;;;;;;5032886;28;20306;-77
2022/04/29 04:45:59;;;;;;;8.18;2.22;;;30.70;55.20;;;;;;5032190;28;20207;-78
2022/04/29 04:48:27;;;;;;;4.22;2.15;;;30.90;53.50;;;;;;5032339;28;20177;-77
2022/04/29 04:50:54;;;;;;;4.28;2.00;;;31.30;53.30;;;;;;5031036;28;20165;-77
2022/04/29 04:53:22;;;;;;;5.47;2.55;;;31.10;53.70;;;;;;5031918;28;20264;-79
2022/04/29 04:55:49;;;;;;;6.75;2.22;;;30.90;54.90;;;;;;5031566;28;20620;-77
2022/04/29 04:58:16;;;;;;;9.02;2.35;;;31.10;54.50;;;;;;5031510;28;20647;-80
2022/04/29 05:00:46;;;;;;;6.13;2.10;;;30.90;55.50;;;;;;5032299;28;20186;-78
2022/04/29 05:03:14;;;;;;;5.28;2.28;;;30.30;57.60;;;;;;5031654;28;20180;-76
2022/04/29 05:05:41;;;;;;;11.15;2.70;;;31.10;55.70;;;;;;5030968;28;20230;-81
2022/04/29 05:08:09;;;;;;;7.57;2.72;;;31.30;54.90;;;;;;5031665;28;20208;-83
2022/04/29 05:10:36;;;;;;;7.57;2.28;;;31.10;54.90;;;;;;5024703;28;20192;-79
2022/04/29 05:13:03;;;;;;;8.27;2.53;;;30.60;57.10;;;;;;5031808;28;20171;-78
2022/04/29 05:15:31;;;;;;;6.97;2.20;;;30.30;58.80;;;;;;5031460;28;20534;-78
2022/04/29 05:17:58;;;;;;;5.03;2.17;;;30.30;58.20;;;;;;5031507;28;20231;-75
2022/04/29 05:20:25;;;;;;;7.38;2.53;;;30.10;58.00;;;;;;5032006;28;20160;-76
2022/04/29 05:22:53;;;;;;;4.55;2.25;;;29.70;59.50;;;;;;5032112;28;20184;-77
2022/04/29 05:25:20;;;;;;;8.05;3.10;;;29.40;60.90;;;;;;5032584;28;20204;-78
2022/04/29 05:27:47;;;;;;;6.40;1.92;;;29.40;59.90;;;;;;5034580;28;20177;-79
2022/04/29 05:30:15;;;;;;;5.03;2.85;;;29.10;61.70;;;;;;5035326;28;20184;-79
2022/04/29 05:32:43;;;;;;;5.53;2.03;;;29.30;61.40;;;;;;5036091;28;20659;-79
2022/04/29 05:35:11;;;;;;;4.97;2.25;;;29.60;59.70;;;;;;5035414;28;20169;-79
2022/04/29 05:37:40;;;;;;;5.82;2.38;;;30.10;59.20;;;;;;5036350;28;20164;-77
2022/04/29 05:42:54;;;;;;;4.90;2.03;;;28.20;64.10;;;;;;5036472;28;20278;-79
2022/04/29 05:45:21;;;;;;;9.63;2.40;;;27.30;66.60;;;;;;5027228;28;20205;-77
2022/04/29 05:47:49;;;;;;;7.27;2.43;;;26.90;68.30;;;;;;5028367;28;20188;-77
2022/04/29 05:50:16;;;;;;;7.50;2.60;;;26.70;69.00;;;;;;5050432;28;20188;-75
2022/04/29 05:52:44;;;;;;;5.53;2.40;;;26.60;69.70;;;;;;5028266;28;20770;-76
2022/04/29 05:55:13;;;;;;;6.20;2.53;;;26.30;70.90;;;;;;5036658;28;20198;-76
2022/04/29 05:57:41;;;;;;;6.27;2.50;;;26.10;70.40;;;;;;5022414;28;20181;-76
2022/04/29 06:00:08;;;;;;;4.80;2.30;;;26.20;69.80;;;;;;5016809;28;20182;-77
2022/04/29 06:02:38;;;;;;;8.83;2.00;;;27.10;66.90;;;;;;5016578;28;20177;-76
2022/04/29 06:05:06;;;;;;;8.07;2.53;;;27.70;64.30;;;;;;5029904;28;20218;-74
2022/04/29 06:07:34;;;;;;;2.63;1.60;;;27.70;63.80;;;;;;5033675;28;20185;-75
2022/04/29 06:10:05;;;;;;;6.63;1.87;;;27.80;63.70;;;;;;5034069;28;20226;-76
2022/04/29 06:12:41;;;;;;;4.87;1.93;;;27.10;65.20;;;;;;5034780;28;20196;-75
2022/04/29 06:15:16;;;;;;;8.20;2.50;;;26.60;67.70;;;;;;5032179;28;20180;-75
2022/04/29 06:17:45;;;;;;;5.63;2.20;;;26.30;69.40;;;;;;5034349;28;20177;-76
2022/04/29 06:20:12;;;;;;;7.00;2.07;;;26.00;70.20;;;;;;5034570;28;20241;-75
2022/04/29 06:22:44;;;;;;;5.27;2.13;;;25.90;70.90;;;;;;5037776;28;20762;-76
2022/04/29 06:25:12;;;;;;;6.57;2.40;;;25.80;71.50;;;;;;5033835;28;20208;-76
2022/04/29 06:27:41;;;;;;;6.03;2.20;;;25.60;72.30;;;;;;5045245;28;20545;-74
2022/04/29 06:30:09;;;;;;;8.73;2.77;;;25.40;73.10;;;;;;5032515;28;20651;-74
2022/04/29 06:32:36;;;;;;;6.73;3.07;;;25.30;73.50;;;;;;5036460;28;20207;-77
2022/04/29 06:35:06;;;;;;;6.90;3.10;;;25.20;74.50;;;;;;5025660;28;20198;-77
2022/04/29 06:37:34;;;;;;;5.67;2.87;;;25.10;74.70;;;;;;5049864;28;20522;-75
2022/04/29 06:40:05;;;;;;;7.00;3.13;;;25.10;74.90;;;;;;5021347;28;20192;-76
2022/04/29 06:42:32;;;;;;;5.50;3.20;;;25.00;74.70;;;;;;5042764;28;20246;-78
2022/04/29 06:44:59;;;;;;;8.83;3.20;;;25.00;75.20;;;;;;5052756;28;20200;-77
2022/04/29 06:47:27;;;;;;;7.97;3.60;;;24.90;75.10;;;;;;5052068;28;20622;-77
2022/04/29 06:49:54;;;;;;;6.07;3.67;;;24.80;75.60;;;;;;5053481;28;20207;-78
2022/04/29 06:52:22;;;;;;;7.00;3.73;;;24.80;75.90;;;;;;5052836;28;20198;-76
2022/04/29 06:54:49;;;;;;;7.70;4.13;;;24.80;76.20;;;;;;5053854;28;20278;-79
2022/04/29 06:57:16;;;;;;;11.63;4.97;;;24.70;76.50;;;;;;5053496;28;20176;-78
2022/04/29 06:59:44;;;;;;;10.97;4.40;;;24.60;76.80;;;;;;5052946;28;20179;-78
2022/04/29 07:02:11;;;;;;;8.70;4.90;;;24.40;77.30;;;;;;5052404;28;20199;-75
2022/04/29 07:04:38;;;;;;;22.07;5.40;;;24.30;78.00;;;;;;5043621;28;20624;-76
2022/04/29 07:07:06;;;;;;;8.83;4.97;;;24.30;78.50;;;;;;5052334;28;20270;-79
2022/04/29 07:09:33;;;;;;;11.53;5.97;;;24.20;79.10;;;;;;5060077;28;20211;-76
2022/04/29 07:12:01;;;;;;;10.13;5.40;;;24.10;79.70;;;;;;5048032;28;20196;-78
2022/04/29 07:14:28;;;;;;;9.93;5.70;;;24.00;79.90;;;;;;5052831;28;20191;-78
2022/04/29 07:16:55;;;;;;;10.23;5.67;;;23.90;80.30;;;;;;5053518;28;20559;-78
2022/04/29 07:19:23;;;;;;;9.27;6.13;;;23.90;80.80;;;;;;5051360;28;20195;-79
2022/04/29 07:21:50;;;;;;;9.03;5.73;;;23.80;81.20;;;;;;5047040;28;20628;-77
2022/04/29 07:24:18;;;;;;;16.30;6.20;;;23.80;81.40;;;;;;5043525;28;20195;-77
2022/04/29 07:26:46;;;;;;;9.03;5.30;;;23.80;81.60;;;;;;5052846;28;20237;-77
2022/04/29 07:29:13;;;;;;;8.03;5.10;;;23.70;81.80;;;;;;5043701;28;20246;-76
2022/04/29 07:31:40;;;;;;;9.43;5.20;;;23.60;81.80;;;;;;5033547;28;20188;-77
2022/04/29 07:34:08;;;;;;;7.63;5.07;;;23.60;82.10;;;;;;5053856;28;20188;-78
2022/04/29 07:42:06;;;;;;;9.00;5.70;;;23.50;82.50;;;;;;5054250;28;20241;-78
2022/04/29 07:44:34;;;;;;;8.83;5.87;;;23.40;82.70;;;;;;5032531;28;20179;-78
2022/04/29 07:47:05;;;;;;;11.77;6.00;;;23.40;82.80;;;;;;5053410;28;20221;-77
2022/04/29 07:49:33;;;;;;;13.50;5.93;;;23.30;82.70;;;;;;5052155;28;20190;-78
2022/04/29 07:52:00;;;;;;;14.83;6.37;;;23.30;82.80;;;;;;5051303;28;20198;-78
2022/04/29 07:54:27;;;;;;;13.47;6.73;;;23.30;83.10;;;;;;5052919;28;20544;-76
2022/04/29 07:56:55;;;;;;;12.60;6.70;;;23.30;83.30;;;;;;5049324;28;20186;-77
2022/04/29 07:59:23;;;;;;;11.00;6.63;;;23.20;83.40;;;;;;5051087;28;20725;-78
2022/04/29 08:01:50;;;;;;;14.97;8.30;;;23.10;83.50;;;;;;5051600;28;20188;-79
2022/04/29 08:04:18;;;;;;;19.93;12.90;;;23.10;83.70;;;;;;5042804;28;20187;-79
2022/04/29 08:06:45;;;;;;;21.97;11.50;;;23.00;83.90;;;;;;5047477;28;20266;-78
2022/04/29 08:09:12;;;;;;;14.27;8.23;;;23.10;84.00;;;;;;5052858;28;20179;-78
2022/04/29 08:11:40;;;;;;;13.43;7.03;;;23.10;84.10;;;;;;5047107;28;20253;-78
2022/04/29 08:14:07;;;;;;;14.20;7.00;;;23.00;84.20;;;;;;5047720;28;20207;-79
2022/04/29 08:16:35;;;;;;;14.40;6.97;;;23.00;84.40;;;;;;5051418;28;20187;-78
2022/04/29 08:19:03;;;;;;;16.07;7.30;;;23.00;84.60;;;;;;5057352;28;20176;-78
2022/04/29 08:21:30;;;;;;;12.23;6.67;;;22.90;84.60;;;;;;5049833;28;20718;-77
2022/04/29 08:23:58;;;;;;;14.47;6.83;;;22.90;84.70;;;;;;5050820;28;20183;-79
2022/04/29 08:26:25;;;;;;;11.57;6.60;;;22.90;84.90;;;;;;5035306;28;20804;-77
2022/04/29 08:28:54;;;;;;;11.90;7.13;;;22.80;84.90;;;;;;5062490;28;20175;-77
2022/04/29 08:31:21;;;;;;;13.13;7.10;;;22.80;85.20;;;;;;5061323;28;20180;-78
2022/04/29 08:33:49;;;;;;;17.40;7.93;;;22.80;85.30;;;;;;5059449;28;20175;-77
2022/04/29 08:36:16;;;;;;;15.13;8.23;;;22.80;85.50;;;;;;5035394;28;20172;-78
2022/04/29 08:38:44;;;;;;;20.07;8.13;;;22.80;85.50;;;;;;5032776;28;20196;-78
2022/04/29 08:41:11;;;;;;;17.10;7.33;;;22.80;85.50;;;;;;5050667;28;20183;-77
2022/04/29 08:43:40;;;;;;;13.17;6.90;;;22.80;85.60;;;;;;5060637;28;20716;-78
2022/04/29 08:46:08;;;;;;;12.47;6.80;;;22.80;85.70;;;;;;5063653;28;20215;-78
2022/04/29 08:48:36;;;;;;;12.43;6.87;;;22.70;85.70;;;;;;5058508;28;20265;-78
2022/04/29 08:51:04;;;;;;;12.63;7.40;;;22.70;85.80;;;;;;5065177;28;20221;-79
2022/04/29 08:53:34;;;;;;;17.80;7.33;;;22.60;85.90;;;;;;5055010;28;20275;-77
2022/04/29 08:58:48;;;;;;;18.13;7.70;;;22.60;86.20;;;;;;5034482;28;20219;-76
2022/04/29 09:01:16;;;;;;;16.07;7.13;;;22.50;86.40;;;;;;5064678;28;20529;-78
2022/04/29 09:03:45;;;;;;;15.80;6.70;;;22.50;86.40;;;;;;5056661;28;20180;-78
2022/04/29 09:06:17;;;;;;;15.60;7.53;;;22.40;86.40;;;;;;5062605;28;20214;-77
2022/04/29 09:08:46;;;;;;;12.60;7.13;;;22.40;86.50;;;;;;5049707;28;20185;-77
2022/04/29 09:11:23;;;;;;;15.47;7.37;;;22.40;86.70;;;;;;5047328;28;20233;-77
2022/04/29 09:13:54;;;;;;;16.63;6.73;;;22.40;86.80;;;;;;5042328;28;20271;-78
2022/04/29 09:16:21;;;;;;;11.83;6.47;;;22.40;86.80;;;;;;5041996;28;20188;-77
2022/04/29 09:18:54;;;;;;;23.83;7.17;;;22.30;86.60;;;;;;5053128;28;20207;-76
2022/04/29 09:21:27;;;;;;;14.17;6.07;;;22.30;86.80;;;;;;5062562;28;20204;-78
2022/04/29 09:23:57;;;;;;;16.80;6.20;;;22.30;86.60;;;;;;5038858;28;20245;-76
2022/04/29 09:26:30;;;;;;;20.77;6.63;;;22.30;86.70;;;;;;5054946;28;20226;-76
2022/04/29 09:29:16;;;;;;;19.30;6.30;;;22.30;86.80;;;;;;5056430;28;20188;-77
2022/04/29 09:31:54;;;;;;;13.20;5.93;;;22.30;86.80;;;;;;5054954;28;20248;-77
2022/04/29 09:34:22;;;;;;;10.60;6.13;;;22.30;86.80;;;;;;5035377;28;20200;-76
2022/04/29 09:36:51;;;;;;;16.27;6.47;;;22.30;86.90;;;;;;5054092;28;20184;-77
2022/04/29 09:39:27;;;;;;;14.00;6.87;;;22.30;87.00;;;;;;5064009;28;20230;-77
2022/04/29 09:42:00;;;;;;;12.60;5.77;;;22.30;86.90;;;;;;5033836;28;20227;-76
2022/04/29 09:44:35;;;;;;;12.83;7.10;;;22.30;86.80;;;;;;5036972;28;20635;-77
2022/04/29 09:47:13;;;;;;;15.47;5.70;;;22.30;86.80;;;;;;5074336;28;20215;-77
2022/04/29 09:49:54;;;;;;;12.50;5.97;;;22.30;86.90;;;;;;5054450;28;20171;-76
2022/04/29 09:52:23;;;;;;;17.43;6.47;;;22.30;86.80;;;;;;5058018;28;20294;-76
2022/04/29 09:54:52;;;;;;;17.63;5.87;;;22.30;86.60;;;;;;5056990;28;20176;-77
2022/04/29 09:57:24;;;;;;;17.37;5.17;;;22.30;86.60;;;;;;5054625;28;20631;-75
2022/04/29 09:59:55;;;;;;;11.37;5.37;;;22.30;86.50;;;;;;5058043;28;20203;-78
2022/04/29 10:02:26;;;;;;;11.10;5.73;;;22.30;86.60;;;;;;5049321;28;20212;-75
2022/04/29 10:04:55;;;;;;;10.27;5.30;;;22.30;86.40;;;;;;5052742;28;20762;-78
2022/04/29 10:07:24;;;;;;;12.47;5.93;;;22.30;86.50;;;;;;5054599;28;20206;-78
2022/04/29 10:09:53;;;;;;;9.40;5.60;;;22.30;86.30;;;;;;5053306;28;20547;-77
2022/04/29 10:12:23;;;;;;;9.13;4.53;;;22.30;86.20;;;;;;5053347;28;20184;-77
2022/04/29 10:14:54;;;;;;;9.83;5.20;;;22.30;86.20;;;;;;5051546;28;20303;-77
2022/04/29 10:23:07;;;;;;;12.27;5.30;;;22.30;85.80;;;;;;5053847;28;20626;-75
2022/04/29 10:25:36;;;;;;;13.03;5.47;;;22.40;85.70;;;;;;5053991;28;20305;-75
2022/04/29 10:28:04;;;;;;;14.37;4.50;;;22.40;85.90;;;;;;5054083;28;20203;-76
2022/04/29 10:30:37;;;;;;;6.27;4.57;;;22.30;85.70;;;;;;5054439;28;20180;-75
2022/04/29 10:33:22;;;;;;;16.27;4.80;;;22.40;85.60;;;;;;5052446;28;20241;-76
2022/04/29 10:35:56;;;;;;;7.33;4.70;;;22.40;85.50;;;;;;5033902;28;20267;-75
2022/04/29 10:38:26;;;;;;;8.67;5.27;;;22.30;85.50;;;;;;5050377;28;20178;-75
2022/04/29 10:41:15;;;;;;;11.17;5.63;;;22.40;85.50;;;;;;5054127;28;20271;-77
2022/04/29 10:43:48;;;;;;;11.90;5.23;;;22.40;85.50;;;;;;5065407;28;20234;-74
2022/04/29 10:46:20;;;;;;;8.47;5.07;;;22.30;85.70;;;;;;5072796;28;20287;-76
2022/04/29 10:48:49;;;;;;;10.23;5.03;;;22.30;85.70;;;;;;5057562;28;20186;-76
2022/04/29 10:51:21;;;;;;;13.23;5.30;;;22.30;86.00;;;;;;5071980;28;20630;-76
2022/04/29 10:54:02;;;;;;;15.33;5.20;;;22.20;86.20;;;;;;5061551;28;20176;-78
2022/04/29 10:56:30;;;;;;;9.43;4.90;;;22.20;86.30;;;;;;5064059;28;20229;-76
2022/04/29 10:59:14;;;;;;;9.40;4.80;;;22.20;86.30;;;;;;5064646;28;20220;-75
2022/04/29 11:01:48;;;;;;;7.97;4.20;;;22.10;86.20;;;;;;5057103;28;20655;-78
2022/04/29 11:04:18;;;;;;;10.20;4.60;;;22.10;86.10;;;;;;5051061;28;20662;-76
2022/04/29 11:06:49;;;;;;;10.70;4.00;;;22.20;85.90;;;;;;5053468;28;20222;-76
2022/04/29 11:09:27;;;;;;;7.93;3.63;;;22.20;85.60;;;;;;5033691;28;20164;-77
2022/04/29 11:11:55;;;;;;;7.00;3.80;;;22.30;85.20;;;;;;5051187;28;20176;-77
2022/04/29 11:14:23;;;;;;;10.20;4.13;;;22.30;84.90;;;;;;5053151;28;20183;-76
2022/04/29 11:17:07;;;;;;;7.03;4.13;;;22.30;84.80;;;;;;5051871;28;20221;-75
2022/04/29 11:19:45;;;;;;;6.50;3.83;;;22.30;84.50;;;;;;5051264;28;20194;-75
2022/04/29 11:25:05;;;;;;;11.93;3.50;;;22.30;84.70;;;;;;5053123;28;20237;-76
2022/04/29 11:27:34;;;;;;;6.73;3.43;;;22.30;84.50;;;;;;5064605;28;20213;-74
2022/04/29 11:30:04;;;;;;;7.77;3.40;;;22.30;84.70;;;;;;5073255;28;20168;-74
2022/04/29 11:32:32;;;;;;;7.87;3.60;;;22.30;84.60;;;;;;5063316;28;20186;-75
2022/04/29 11:35:00;;;;;;;8.77;3.73;;;22.30;84.60;;;;;;5058961;28;20194;-75
2022/04/29 11:37:36;;;;;;;9.40;3.93;;;22.30;84.60;;;;;;5060319;28;20171;-76
2022/04/29 11:40:08;;;;;;;10.07;3.83;;;22.20;84.80;;;;;;5052942;28;20181;-76
2022/04/29 11:42:36;;;;;;;6.53;3.33;;;22.20;84.90;;;;;;5076942;28;20583;-75
2022/04/29 11:45:13;;;;;;;6.67;3.97;;;22.20;85.00;;;;;;5051906;28;20176;-76
2022/04/29 11:47:41;;;;;;;5.20;3.67;;;22.10;85.00;;;;;;5047942;28;20219;-75
2022/04/29 11:50:08;;;;;;;7.30;3.77;;;22.20;85.10;;;;;;5054974;28;20180;-76
2022/04/29 11:52:39;;;;;;;7.13;3.43;;;22.30;84.30;;;;;;5042169;28;20715;-75
2022/04/29 11:55:19;;;;;;;10.57;3.60;;;22.20;84.60;;;;;;5045632;28;20180;-76
2022/04/29 11:57:50;;;;;;;11.43;4.00;;;22.20;84.30;;;;;;5033969;28;20160;-75
2022/04/29 12:00:29;;;;;;;5.67;3.80;;;22.30;84.30;;;;;;5032982;28;20180;-75
2022/04/29 12:02:58;;;;;;;5.87;3.70;;;22.30;84.40;;;;;;5036780;28;20180;-75
2022/04/29 12:05:28;;;;;;;6.80;3.37;;;22.20;84.50;;;;;;5051071;28;20211;-76
2022/04/29 12:08:00;;;;;;;6.17;4.00;;;22.20;84.30;;;;;;5052142;28;20172;-76
2022/04/29 12:10:32;;;;;;;6.80;3.60;;;22.20;84.50;;;;;;5052507;28;20184;-76
2022/04/29 12:13:02;;;;;;;6.47;3.77;;;22.20;84.70;;;;;;5052274;28;20202;-77
2022/04/29 12:15:35;;;;;;;5.07;3.67;;;22.10;84.70;;;;;;5050633;28;20179;-76
2022/04/29 12:18:08;;;;;;;11.47;3.40;;;22.10;84.80;;;;;;5082890;28;20187;-76
2022/04/29 12:20:37;;;;;;;7.97;3.50;;;22.00;85.00;;;;;;5051406;28;20198;-77
2022/04/29 12:23:10;;;;;;;10.57;3.53;;;22.00;85.10;;;;;;5052781;28;20180;-76
2022/04/29 12:25:42;;;;;;;9.50;4.27;;;22.00;85.10;;;;;;5052524;28;20195;-77
2022/04/29 12:28:16;;;;;;;9.03;3.57;;;22.00;85.20;;;;;;5052407;28;20176;-76
2022/04/29 12:37:00;;;;;;;6.10;3.70;;;21.90;85.60;;;;;;5050463;28;20206;-75
2022/04/29 12:39:49;;;;;;;6.83;4.00;;;21.90;85.70;;;;;;5056032;28;20183;-76
2022/04/29 12:42:19;;;;;;;10.43;4.00;;;21.90;85.70;;;;;;5054866;28;20571;-75
2022/04/29 12:45:04;;;;;;;8.10;3.87;;;21.90;85.70;;;;;;5056574;28;20191;-74
2022/04/29 12:47:38;;;;;;;6.70;4.13;;;21.80;85.80;;;;;;5055808;28;20269;-75
2022/04/29 12:50:26;;;;;;;9.97;3.80;;;21.90;85.70;;;;;;5066538;28;20646;-76
2022/04/29 12:53:01;;;;;;;5.27;3.70;;;21.90;85.70;;;;;;5047735;28;20655;-77
2022/04/29 12:55:50;;;;;;;8.17;3.60;;;21.90;85.60;;;;;;5051918;28;20179;-76
2022/04/29 12:58:21;;;;;;;5.90;3.37;;;21.90;85.40;;;;;;5055504;28;20184;-75
2022/04/29 13:00:55;;;;;;;7.63;4.07;;;21.90;85.50;;;;;;5055694;28;20727;-76
2022/04/29 13:03:25;;;;;;;7.13;4.20;;;21.90;85.50;;;;;;5054319;28;20195;-77
2022/04/29 13:05:52;;;;;;;6.10;3.60;;;21.90;85.50;;;;;;5054850;28;20195;-75
2022/04/29 13:08:20;;;;;;;8.17;4.20;;;21.90;85.70;;;;;;5036543;28;20177;-74
2022/04/29 13:10:51;;;;;;;7.63;4.53;;;21.80;85.70;;;;;;5036216;28;20208;-75
2022/04/29 13:13:20;;;;;;;9.23;4.20;;;21.80;85.70;;;;;;5035947;28;20169;-75
2022/04/29 13:15:48;;;;;;;7.90;3.87;;;21.80;85.80;;;;;;5036036;28;20179;-75
2022/04/29 13:18:17;;;;;;;8.13;4.73;;;21.80;85.90;;;;;;5055396;28;20195;-75
2022/04/29 13:20:45;;;;;;;9.00;4.40;;;21.80;86.00;;;;;;5056214;28;20188;-76
2022/04/29 13:23:14;;;;;;;7.70;4.37;;;21.80;86.10;;;;;;5056100;28;20184;-77
2022/04/29 13:25:43;;;;;;;6.97;4.30;;;21.80;86.20;;;;;;5055703;28;20243;-77